Decoded Metar for KTKI (MCKINNEY in TX, USA) (IATA:TKI) | Meteo·Mobile Aviation Weather
aviador You're here:

KTKI Decoded Metar

MCKINNEY in TX, USA
Report Time2018-10-15 20:00:00
UTC Time2018-10-15 20:06:29
Flight Rules mvfr MVFR
Wind360° at 12 kt
W.Decomp.*RWY 36: 12.0 kt HW 0.6 kt LCW
Visibility9656 m
Phenomena:Light Rain
Mist
Clouds:Broken 013 Hf
Broken 018 Hf
Overcast 027 Hf
Expected CloudBase > 400 ft AGL from Temp-Dew spread
Ceiling1,300 ft
Temp06°C (ISA -8)
Dew Point05°C (93% RH)
AAT0.5°C
QNH1025 hPa
Density Alt-643 ft
Elevation587 ft
Report Wrong Elevation
Raw Report
KTKI 152000Z 36012KT 6SM -RA BR BKN013 BKN018 OVC027 06/05 A3027
RMK AO2 P0000 T00610050=

Extra information for KTKI:More info

Metar Taf Metar & Taf Last 4 Metars F.Rules Stats Wind Profile Meteogram Temp Stats Airport Information Weather charts Add Link Nearby VenuesMetar ALERT Operation Metar Decoded Social comments

AIRNAV info for KTKI